sensor_id;sensor_type;location;lat;lon;timestamp;temperature;humidity
16392;DHT22;8305;-33.882;151.134;2023-11-21T00:00:51;21.20;99.90
16392;DHT22;8305;-33.882;151.134;2023-11-21T00:03:22;21.30;99.90
16392;DHT22;8305;-33.882;151.134;2023-11-21T00:05:55;21.50;99.90
16392;DHT22;8305;-33.882;151.134;2023-11-21T00:08:29;21.70;99.90
16392;DHT22;8305;-33.882;151.134;2023-11-21T00:11:00;21.90;99.90
16392;DHT22;8305;-33.882;151.134;2023-11-21T00:13:31;21.80;99.90
16392;DHT22;8305;-33.882;151.134;2023-11-21T00:16:02;21.70;99.90
16392;DHT22;8305;-33.882;151.134;2023-11-21T00:18:35;21.70;99.90
16392;DHT22;8305;-33.882;151.134;2023-11-21T00:21:06;21.80;99.90
16392;DHT22;8305;-33.882;151.134;2023-11-21T00:23:39;21.80;99.90
16392;DHT22;8305;-33.882;151.134;2023-11-21T00:26:09;21.80;99.90
16392;DHT22;8305;-33.882;151.134;2023-11-21T00:28:40;21.80;99.90
16392;DHT22;8305;-33.882;151.134;2023-11-21T00:31:11;21.90;99.90
16392;DHT22;8305;-33.882;151.134;2023-11-21T00:33:42;22.00;99.90
16392;DHT22;8305;-33.882;151.134;2023-11-21T00:36:13;22.00;99.90
16392;DHT22;8305;-33.882;151.134;2023-11-21T00:38:46;22.00;99.90
16392;DHT22;8305;-33.882;151.134;2023-11-21T00:41:17;22.00;99.90
16392;DHT22;8305;-33.882;151.134;2023-11-21T00:43:47;22.00;99.90
16392;DHT22;8305;-33.882;151.134;2023-11-21T00:46:18;22.00;99.90
16392;DHT22;8305;-33.882;151.134;2023-11-21T00:48:49;22.00;99.90
16392;DHT22;8305;-33.882;151.134;2023-11-21T00:51:22;22.10;99.90
16392;DHT22;8305;-33.882;151.134;2023-11-21T00:53:54;22.10;99.90
16392;DHT22;8305;-33.882;151.134;2023-11-21T00:56:25;22.10;99.90
16392;DHT22;8305;-33.882;151.134;2023-11-21T00:58:56;22.10;99.90
16392;DHT22;8305;-33.882;151.134;2023-11-21T01:01:27;22.10;99.90
16392;DHT22;8305;-33.882;151.134;2023-11-21T01:03:58;22.20;99.90
16392;DHT22;8305;-33.882;151.134;2023-11-21T01:06:28;22.40;99.90
16392;DHT22;8305;-33.882;151.134;2023-11-21T01:09:01;22.70;99.90
16392;DHT22;8305;-33.882;151.134;2023-11-21T01:11:35;22.90;99.90
16392;DHT22;8305;-33.882;151.134;2023-11-21T01:14:06;22.80;99.90
16392;DHT22;8305;-33.882;151.134;2023-11-21T01:16:38;22.80;99.90
16392;DHT22;8305;-33.882;151.134;2023-11-21T01:19:10;22.80;99.90
16392;DHT22;8305;-33.882;151.134;2023-11-21T01:21:40;22.80;99.90
16392;DHT22;8305;-33.882;151.134;2023-11-21T01:24:14;22.80;99.90
16392;DHT22;8305;-33.882;151.134;2023-11-21T01:26:44;22.60;99.90
16392;DHT22;8305;-33.882;151.134;2023-11-21T01:29:15;22.60;99.90
16392;DHT22;8305;-33.882;151.134;2023-11-21T01:31:46;22.40;99.90
16392;DHT22;8305;-33.882;151.134;2023-11-21T01:34:17;22.30;99.90
16392;DHT22;8305;-33.882;151.134;2023-11-21T01:36:47;22.30;99.90
16392;DHT22;8305;-33.882;151.134;2023-11-21T01:39:20;22.20;99.90
16392;DHT22;8305;-33.882;151.134;2023-11-21T01:41:51;22.30;99.90
16392;DHT22;8305;-33.882;151.134;2023-11-21T01:44:22;22.30;99.90
16392;DHT22;8305;-33.882;151.134;2023-11-21T01:46:53;22.40;99.90
16392;DHT22;8305;-33.882;151.134;2023-11-21T01:49:25;22.50;99.90
16392;DHT22;8305;-33.882;151.134;2023-11-21T01:51:56;22.70;99.90
16392;DHT22;8305;-33.882;151.134;2023-11-21T01:54:29;22.80;99.90
16392;DHT22;8305;-33.882;151.134;2023-11-21T01:57:00;22.90;99.90
16392;DHT22;8305;-33.882;151.134;2023-11-21T01:59:34;23.00;99.90
16392;DHT22;8305;-33.882;151.134;2023-11-21T02:02:06;22.90;99.90
16392;DHT22;8305;-33.882;151.134;2023-11-21T02:04:38;22.90;99.90
16392;DHT22;8305;-33.882;151.134;2023-11-21T02:07:09;22.80;99.90
16392;DHT22;8305;-33.882;151.134;2023-11-21T02:09:42;22.70;99.90
16392;DHT22;8305;-33.882;151.134;2023-11-21T02:12:13;22.80;99.90
16392;DHT22;8305;-33.882;151.134;2023-11-21T02:14:43;22.90;99.90
16392;DHT22;8305;-33.882;151.134;2023-11-21T02:17:14;23.20;99.90
16392;DHT22;8305;-33.882;151.134;2023-11-21T02:19:45;23.60;99.90
16392;DHT22;8305;-33.882;151.134;2023-11-21T02:22:19;23.80;99.90
16392;DHT22;8305;-33.882;151.134;2023-11-21T02:24:52;24.20;99.90
16392;DHT22;8305;-33.882;151.134;2023-11-21T02:27:23;24.20;99.90
16392;DHT22;8305;-33.882;151.134;2023-11-21T02:29:55;24.10;99.90
16392;DHT22;8305;-33.882;151.134;2023-11-21T02:32:26;24.00;99.90
16392;DHT22;8305;-33.882;151.134;2023-11-21T02:34:59;23.90;99.90
16392;DHT22;8305;-33.882;151.134;2023-11-21T02:37:30;23.80;99.90
16392;DHT22;8305;-33.882;151.134;2023-11-21T02:40:03;23.80;99.90
16392;DHT22;8305;-33.882;151.134;2023-11-21T02:42:37;23.80;99.90
16392;DHT22;8305;-33.882;151.134;2023-11-21T02:45:09;23.70;99.90
16392;DHT22;8305;-33.882;151.134;2023-11-21T02:47:40;23.70;99.90
16392;DHT22;8305;-33.882;151.134;2023-11-21T02:50:11;23.50;99.90
16392;DHT22;8305;-33.882;151.134;2023-11-21T02:52:42;23.30;99.90
16392;DHT22;8305;-33.882;151.134;2023-11-21T02:55:15;23.20;99.90
16392;DHT22;8305;-33.882;151.134;2023-11-21T02:57:46;23.20;99.90
16392;DHT22;8305;-33.882;151.134;2023-11-21T03:00:17;23.10;99.90
16392;DHT22;8305;-33.882;151.134;2023-11-21T03:02:48;23.10;99.90
16392;DHT22;8305;-33.882;151.134;2023-11-21T03:05:19;23.10;99.90
16392;DHT22;8305;-33.882;151.134;2023-11-21T03:07:49;22.90;99.90
16392;DHT22;8305;-33.882;151.134;2023-11-21T03:10:22;22.80;99.90
16392;DHT22;8305;-33.882;151.134;2023-11-21T03:12:53;22.80;99.90
16392;DHT22;8305;-33.882;151.134;2023-11-21T03:15:25;22.90;99.90
16392;DHT22;8305;-33.882;151.134;2023-11-21T03:17:55;23.10;99.90
16392;DHT22;8305;-33.882;151.134;2023-11-21T03:20:26;23.30;99.90
16392;DHT22;8305;-33.882;151.134;2023-11-21T03:22:57;23.40;99.90
16392;DHT22;8305;-33.882;151.134;2023-11-21T03:25:30;23.40;99.90
16392;DHT22;8305;-33.882;151.134;2023-11-21T03:28:01;23.50;99.90
16392;DHT22;8305;-33.882;151.134;2023-11-21T03:30:32;23.60;99.90
16392;DHT22;8305;-33.882;151.134;2023-11-21T03:33:02;23.80;99.90
16392;DHT22;8305;-33.882;151.134;2023-11-21T03:35:33;23.80;99.90
16392;DHT22;8305;-33.882;151.134;2023-11-21T03:38:04;23.80;99.90
16392;DHT22;8305;-33.882;151.134;2023-11-21T03:40:37;23.70;99.90
16392;DHT22;8305;-33.882;151.134;2023-11-21T03:43:07;23.80;99.90
16392;DHT22;8305;-33.882;151.134;2023-11-21T03:45:38;23.80;99.90
16392;DHT22;8305;-33.882;151.134;2023-11-21T03:48:09;23.90;99.90
16392;DHT22;8305;-33.882;151.134;2023-11-21T03:50:42;24.00;99.90
16392;DHT22;8305;-33.882;151.134;2023-11-21T03:53:13;24.00;99.90
16392;DHT22;8305;-33.882;151.134;2023-11-21T03:55:46;24.10;99.90
16392;DHT22;8305;-33.882;151.134;2023-11-21T03:58:17;24.10;99.90
16392;DHT22;8305;-33.882;151.134;2023-11-21T04:00:48;24.00;99.90
16392;DHT22;8305;-33.882;151.134;2023-11-21T04:03:19;24.00;99.90
16392;DHT22;8305;-33.882;151.134;2023-11-21T04:05:49;24.00;99.90
16392;DHT22;8305;-33.882;151.134;2023-11-21T04:08:20;24.00;99.90
16392;DHT22;8305;-33.882;151.134;2023-11-21T04:10:53;24.00;99.90
16392;DHT22;8305;-33.882;151.134;2023-11-21T04:13:23;23.90;99.90
16392;DHT22;8305;-33.882;151.134;2023-11-21T04:15:54;24.00;99.90
16392;DHT22;8305;-33.882;151.134;2023-11-21T04:18:25;24.00;99.90
16392;DHT22;8305;-33.882;151.134;2023-11-21T04:20:56;24.00;99.90
16392;DHT22;8305;-33.882;151.134;2023-11-21T04:23:28;23.90;99.90
16392;DHT22;8305;-33.882;151.134;2023-11-21T04:26:01;23.80;99.90
16392;DHT22;8305;-33.882;151.134;2023-11-21T04:28:31;23.60;99.90
16392;DHT22;8305;-33.882;151.134;2023-11-21T04:31:02;23.50;99.90
16392;DHT22;8305;-33.882;151.134;2023-11-21T04:33:34;23.30;99.90
16392;DHT22;8305;-33.882;151.134;2023-11-21T04:36:06;23.30;99.90
16392;DHT22;8305;-33.882;151.134;2023-11-21T04:38:36;23.30;99.90
16392;DHT22;8305;-33.882;151.134;2023-11-21T04:41:10;23.20;99.90
16392;DHT22;8305;-33.882;151.134;2023-11-21T04:43:41;23.10;99.90
16392;DHT22;8305;-33.882;151.134;2023-11-21T04:46:12;23.10;99.90
16392;DHT22;8305;-33.882;151.134;2023-11-21T04:48:43;23.20;99.90
16392;DHT22;8305;-33.882;151.134;2023-11-21T04:51:14;23.30;99.90
16392;DHT22;8305;-33.882;151.134;2023-11-21T04:53:45;23.40;99.90
16392;DHT22;8305;-33.882;151.134;2023-11-21T04:56:18;23.60;99.90
16392;DHT22;8305;-33.882;151.134;2023-11-21T04:58:49;23.60;99.90
16392;DHT22;8305;-33.882;151.134;2023-11-21T05:01:20;23.50;99.90
16392;DHT22;8305;-33.882;151.134;2023-11-21T05:03:51;23.50;99.90
16392;DHT22;8305;-33.882;151.134;2023-11-21T05:06:25;23.60;99.90
16392;DHT22;8305;-33.882;151.134;2023-11-21T05:08:56;23.60;99.90
16392;DHT22;8305;-33.882;151.134;2023-11-21T05:11:29;23.60;99.90
16392;DHT22;8305;-33.882;151.134;2023-11-21T05:14:00;23.60;99.90
16392;DHT22;8305;-33.882;151.134;2023-11-21T05:16:31;23.60;99.90
16392;DHT22;8305;-33.882;151.134;2023-11-21T05:19:03;23.50;99.90
16392;DHT22;8305;-33.882;151.134;2023-11-21T05:21:34;23.50;99.90
16392;DHT22;8305;-33.882;151.134;2023-11-21T05:24:06;23.40;99.90
16392;DHT22;8305;-33.882;151.134;2023-11-21T05:26:39;23.30;99.90
16392;DHT22;8305;-33.882;151.134;2023-11-21T05:29:09;23.30;99.90
16392;DHT22;8305;-33.882;151.134;2023-11-21T05:31:40;23.20;99.90
16392;DHT22;8305;-33.882;151.134;2023-11-21T05:34:11;23.10;99.90
16392;DHT22;8305;-33.882;151.134;2023-11-21T05:36:44;23.10;99.90
16392;DHT22;8305;-33.882;151.134;2023-11-21T05:39:15;23.10;99.90
16392;DHT22;8305;-33.882;151.134;2023-11-21T05:41:49;22.80;99.90
16392;DHT22;8305;-33.882;151.134;2023-11-21T05:44:20;23.20;99.90
16392;DHT22;8305;-33.882;151.134;2023-11-21T05:46:51;23.10;99.90
16392;DHT22;8305;-33.882;151.134;2023-11-21T05:49:22;23.00;99.90
16392;DHT22;8305;-33.882;151.134;2023-11-21T05:51:54;23.00;99.90
16392;DHT22;8305;-33.882;151.134;2023-11-21T05:54:25;22.90;99.90
16392;DHT22;8305;-33.882;151.134;2023-11-21T05:56:58;22.80;99.90
16392;DHT22;8305;-33.882;151.134;2023-11-21T05:59:29;22.70;99.90
16392;DHT22;8305;-33.882;151.134;2023-11-21T06:02:00;22.70;99.90
16392;DHT22;8305;-33.882;151.134;2023-11-21T06:04:32;22.70;99.90
16392;DHT22;8305;-33.882;151.134;2023-11-21T06:07:03;22.70;99.90
16392;DHT22;8305;-33.882;151.134;2023-11-21T06:09:35;22.70;99.90
16392;DHT22;8305;-33.882;151.134;2023-11-21T06:12:08;22.70;99.90
16392;DHT22;8305;-33.882;151.134;2023-11-21T06:14:38;22.60;99.90
16392;DHT22;8305;-33.882;151.134;2023-11-21T06:17:09;22.60;99.90
16392;DHT22;8305;-33.882;151.134;2023-11-21T06:19:41;22.60;99.90
16392;DHT22;8305;-33.882;151.134;2023-11-21T06:22:13;22.70;99.90
16392;DHT22;8305;-33.882;151.134;2023-11-21T06:24:44;22.70;99.90
16392;DHT22;8305;-33.882;151.134;2023-11-21T06:27:17;22.70;99.90
16392;DHT22;8305;-33.882;151.134;2023-11-21T06:29:47;22.70;99.90
16392;DHT22;8305;-33.882;151.134;2023-11-21T06:32:19;22.70;99.90
16392;DHT22;8305;-33.882;151.134;2023-11-21T06:34:50;22.70;99.90
16392;DHT22;8305;-33.882;151.134;2023-11-21T06:37:22;22.60;99.90
16392;DHT22;8305;-33.882;151.134;2023-11-21T06:39:53;22.50;99.90
16392;DHT22;8305;-33.882;151.134;2023-11-21T06:42:26;22.50;99.90
16392;DHT22;8305;-33.882;151.134;2023-11-21T06:44:57;22.50;99.90
16392;DHT22;8305;-33.882;151.134;2023-11-21T06:47:31;22.40;99.90
16392;DHT22;8305;-33.882;151.134;2023-11-21T06:50:02;22.50;99.90
16392;DHT22;8305;-33.882;151.134;2023-11-21T06:52:33;22.40;99.90
16392;DHT22;8305;-33.882;151.134;2023-11-21T06:55:04;22.40;99.90
16392;DHT22;8305;-33.882;151.134;2023-11-21T06:57:38;22.30;99.90
16392;DHT22;8305;-33.882;151.134;2023-11-21T07:00:09;22.30;99.90
16392;DHT22;8305;-33.882;151.134;2023-11-21T07:02:40;22.20;99.90
16392;DHT22;8305;-33.882;151.134;2023-11-21T07:05:11;22.20;99.90
16392;DHT22;8305;-33.882;151.134;2023-11-21T07:07:43;22.20;99.90
16392;DHT22;8305;-33.882;151.134;2023-11-21T07:10:14;22.10;99.90
16392;DHT22;8305;-33.882;151.134;2023-11-21T07:12:46;22.10;99.90
16392;DHT22;8305;-33.882;151.134;2023-11-21T07:15:19;22.00;99.90
16392;DHT22;8305;-33.882;151.134;2023-11-21T07:17:50;22.00;99.90
16392;DHT22;8305;-33.882;151.134;2023-11-21T07:20:21;22.00;99.90
16392;DHT22;8305;-33.882;151.134;2023-11-21T07:22:52;22.00;99.90
16392;DHT22;8305;-33.882;151.134;2023-11-21T07:25:23;22.00;99.90
16392;DHT22;8305;-33.882;151.134;2023-11-21T07:27:57;22.00;99.90
16392;DHT22;8305;-33.882;151.134;2023-11-21T07:30:28;22.00;99.90
16392;DHT22;8305;-33.882;151.134;2023-11-21T07:32:58;22.00;99.90
16392;DHT22;8305;-33.882;151.134;2023-11-21T07:35:29;21.90;99.90
16392;DHT22;8305;-33.882;151.134;2023-11-21T07:38:00;21.90;99.90
16392;DHT22;8305;-33.882;151.134;2023-11-21T07:40:31;21.90;99.90
16392;DHT22;8305;-33.882;151.134;2023-11-21T07:43:04;21.80;99.90
16392;DHT22;8305;-33.882;151.134;2023-11-21T07:45:35;21.70;99.90
16392;DHT22;8305;-33.882;151.134;2023-11-21T07:48:06;21.60;99.90
16392;DHT22;8305;-33.882;151.134;2023-11-21T07:50:37;21.60;99.90
16392;DHT22;8305;-33.882;151.134;2023-11-21T07:53:07;21.60;99.90
16392;DHT22;8305;-33.882;151.134;2023-11-21T07:55:38;21.50;99.90
16392;DHT22;8305;-33.882;151.134;2023-11-21T07:58:12;21.40;99.90
16392;DHT22;8305;-33.882;151.134;2023-11-21T08:00:43;21.40;99.90
16392;DHT22;8305;-33.882;151.134;2023-11-21T08:03:14;21.30;99.90
16392;DHT22;8305;-33.882;151.134;2023-11-21T08:05:45;21.30;99.90
16392;DHT22;8305;-33.882;151.134;2023-11-21T08:08:16;21.20;99.90
16392;DHT22;8305;-33.882;151.134;2023-11-21T08:10:47;21.20;99.90
16392;DHT22;8305;-33.882;151.134;2023-11-21T08:13:26;21.20;99.90
16392;DHT22;8305;-33.882;151.134;2023-11-21T08:15:58;21.10;99.90
16392;DHT22;8305;-33.882;151.134;2023-11-21T08:18:30;21.10;99.90
16392;DHT22;8305;-33.882;151.134;2023-11-21T08:21:05;21.10;99.90
16392;DHT22;8305;-33.882;151.134;2023-11-21T08:23:36;21.10;99.90
16392;DHT22;8305;-33.882;151.134;2023-11-21T08:26:07;21.00;99.90
16392;DHT22;8305;-33.882;151.134;2023-11-21T08:28:39;21.00;99.90
16392;DHT22;8305;-33.882;151.134;2023-11-21T08:31:10;21.00;99.90
16392;DHT22;8305;-33.882;151.134;2023-11-21T08:33:41;20.90;99.90
16392;DHT22;8305;-33.882;151.134;2023-11-21T08:36:12;20.90;99.90
16392;DHT22;8305;-33.882;151.134;2023-11-21T08:38:43;20.90;99.90
16392;DHT22;8305;-33.882;151.134;2023-11-21T08:41:14;20.90;99.90
16392;DHT22;8305;-33.882;151.134;2023-11-21T08:43:49;20.80;99.90
16392;DHT22;8305;-33.882;151.134;2023-11-21T08:46:21;20.80;99.90
16392;DHT22;8305;-33.882;151.134;2023-11-21T08:48:55;20.80;99.90
16392;DHT22;8305;-33.882;151.134;2023-11-21T08:51:26;20.80;99.90
16392;DHT22;8305;-33.882;151.134;2023-11-21T08:53:57;20.70;99.90
16392;DHT22;8305;-33.882;151.134;2023-11-21T08:56:32;20.70;99.90
16392;DHT22;8305;-33.882;151.134;2023-11-21T08:59:04;20.70;99.90
16392;DHT22;8305;-33.882;151.134;2023-11-21T09:01:35;20.70;99.90
16392;DHT22;8305;-33.882;151.134;2023-11-21T09:04:06;20.70;99.90
16392;DHT22;8305;-33.882;151.134;2023-11-21T09:06:37;20.80;99.90
16392;DHT22;8305;-33.882;151.134;2023-11-21T09:09:08;20.80;99.90
16392;DHT22;8305;-33.882;151.134;2023-11-21T09:11:39;20.80;99.90
16392;DHT22;8305;-33.882;151.134;2023-11-21T09:14:11;20.80;99.90
16392;DHT22;8305;-33.882;151.134;2023-11-21T09:16:43;20.80;99.90
16392;DHT22;8305;-33.882;151.134;2023-11-21T09:19:14;20.80;99.90
16392;DHT22;8305;-33.882;151.134;2023-11-21T09:21:45;20.80;99.90
16392;DHT22;8305;-33.882;151.134;2023-11-21T09:24:16;20.80;99.90
16392;DHT22;8305;-33.882;151.134;2023-11-21T09:26:47;20.80;99.90
16392;DHT22;8305;-33.882;151.134;2023-11-21T09:29:19;20.90;99.90
16392;DHT22;8305;-33.882;151.134;2023-11-21T09:31:50;20.90;99.90
16392;DHT22;8305;-33.882;151.134;2023-11-21T09:34:22;20.90;99.90
16392;DHT22;8305;-33.882;151.134;2023-11-21T09:36:53;20.80;99.90
16392;DHT22;8305;-33.882;151.134;2023-11-21T09:39:24;20.80;99.90
16392;DHT22;8305;-33.882;151.134;2023-11-21T09:41:59;20.80;99.90
16392;DHT22;8305;-33.882;151.134;2023-11-21T09:44:36;20.90;99.90
16392;DHT22;8305;-33.882;151.134;2023-11-21T09:47:15;20.90;99.90
16392;DHT22;8305;-33.882;151.134;2023-11-21T09:49:48;20.80;99.90
16392;DHT22;8305;-33.882;151.134;2023-11-21T09:52:24;20.80;99.90
16392;DHT22;8305;-33.882;151.134;2023-11-21T09:54:56;20.80;99.90
16392;DHT22;8305;-33.882;151.134;2023-11-21T09:57:28;20.80;99.90
16392;DHT22;8305;-33.882;151.134;2023-11-21T10:00:03;20.80;99.90
16392;DHT22;8305;-33.882;151.134;2023-11-21T10:02:40;20.80;99.90
16392;DHT22;8305;-33.882;151.134;2023-11-21T10:05:11;20.80;99.90
16392;DHT22;8305;-33.882;151.134;2023-11-21T10:07:43;20.80;99.90
16392;DHT22;8305;-33.882;151.134;2023-11-21T10:10:15;20.80;99.90
16392;DHT22;8305;-33.882;151.134;2023-11-21T10:12:50;20.90;99.90
16392;DHT22;8305;-33.882;151.134;2023-11-21T10:15:25;20.90;99.90
16392;DHT22;8305;-33.882;151.134;2023-11-21T10:17:57;20.90;99.90
16392;DHT22;8305;-33.882;151.134;2023-11-21T10:20:28;20.90;99.90
16392;DHT22;8305;-33.882;151.134;2023-11-21T10:22:59;20.90;99.90
16392;DHT22;8305;-33.882;151.134;2023-11-21T10:25:31;20.90;99.90
16392;DHT22;8305;-33.882;151.134;2023-11-21T10:28:04;20.90;99.90
16392;DHT22;8305;-33.882;151.134;2023-11-21T10:30:38;20.90;99.90
16392;DHT22;8305;-33.882;151.134;2023-11-21T10:33:12;20.90;99.90
16392;DHT22;8305;-33.882;151.134;2023-11-21T10:35:46;20.90;99.90
16392;DHT22;8305;-33.882;151.134;2023-11-21T10:38:18;20.90;99.90
16392;DHT22;8305;-33.882;151.134;2023-11-21T10:40:51;20.90;99.90
16392;DHT22;8305;-33.882;151.134;2023-11-21T10:43:25;20.90;99.90
16392;DHT22;8305;-33.882;151.134;2023-11-21T10:46:01;20.90;99.90
16392;DHT22;8305;-33.882;151.134;2023-11-21T10:48:33;20.90;99.90
16392;DHT22;8305;-33.882;151.134;2023-11-21T10:51:08;20.90;99.90
16392;DHT22;8305;-33.882;151.134;2023-11-21T10:53:42;20.90;99.90
16392;DHT22;8305;-33.882;151.134;2023-11-21T10:56:15;21.00;99.90
16392;DHT22;8305;-33.882;151.134;2023-11-21T10:58:49;20.90;99.90
16392;DHT22;8305;-33.882;151.134;2023-11-21T11:01:26;20.90;99.90
16392;DHT22;8305;-33.882;151.134;2023-11-21T11:04:00;20.90;99.90
16392;DHT22;8305;-33.882;151.134;2023-11-21T11:06:31;20.90;99.90
16392;DHT22;8305;-33.882;151.134;2023-11-21T11:09:03;20.90;99.90
16392;DHT22;8305;-33.882;151.134;2023-11-21T11:11:36;20.90;99.90
16392;DHT22;8305;-33.882;151.134;2023-11-21T11:14:12;20.90;99.90
16392;DHT22;8305;-33.882;151.134;2023-11-21T11:16:46;20.80;99.90
16392;DHT22;8305;-33.882;151.134;2023-11-21T11:19:17;20.80;99.90
16392;DHT22;8305;-33.882;151.134;2023-11-21T11:21:53;20.80;99.90
16392;DHT22;8305;-33.882;151.134;2023-11-21T11:24:41;20.80;99.90
16392;DHT22;8305;-33.882;151.134;2023-11-21T11:27:23;20.80;99.90
16392;DHT22;8305;-33.882;151.134;2023-11-21T11:30:04;20.80;99.90
16392;DHT22;8305;-33.882;151.134;2023-11-21T11:32:47;20.70;99.90
16392;DHT22;8305;-33.882;151.134;2023-11-21T11:35:26;20.70;99.90
16392;DHT22;8305;-33.882;151.134;2023-11-21T11:38:02;20.70;99.90
16392;DHT22;8305;-33.882;151.134;2023-11-21T11:40:45;20.70;99.90
16392;DHT22;8305;-33.882;151.134;2023-11-21T11:43:26;20.70;99.90
16392;DHT22;8305;-33.882;151.134;2023-11-21T11:45:57;20.70;99.90
16392;DHT22;8305;-33.882;151.134;2023-11-21T11:48:38;20.60;99.90
16392;DHT22;8305;-33.882;151.134;2023-11-21T11:51:13;20.60;99.90
16392;DHT22;8305;-33.882;151.134;2023-11-21T11:53:46;20.50;99.90
16392;DHT22;8305;-33.882;151.134;2023-11-21T11:56:27;20.50;99.90
16392;DHT22;8305;-33.882;151.134;2023-11-21T11:58:59;20.50;99.90
16392;DHT22;8305;-33.882;151.134;2023-11-21T12:01:33;20.40;99.90
16392;DHT22;8305;-33.882;151.134;2023-11-21T12:04:35;20.40;99.90
16392;DHT22;8305;-33.882;151.134;2023-11-21T12:07:15;20.40;99.90
16392;DHT22;8305;-33.882;151.134;2023-11-21T12:09:45;20.40;99.90
16392;DHT22;8305;-33.882;151.134;2023-11-21T12:12:16;20.40;99.90
16392;DHT22;8305;-33.882;151.134;2023-11-21T12:14:47;20.40;99.90
16392;DHT22;8305;-33.882;151.134;2023-11-21T12:17:18;20.40;99.90
16392;DHT22;8305;-33.882;151.134;2023-11-21T12:19:54;20.40;99.90
16392;DHT22;8305;-33.882;151.134;2023-11-21T12:22:32;20.30;99.90
16392;DHT22;8305;-33.882;151.134;2023-11-21T12:25:03;20.30;99.90
16392;DHT22;8305;-33.882;151.134;2023-11-21T12:27:34;20.30;99.90
16392;DHT22;8305;-33.882;151.134;2023-11-21T12:30:06;20.30;99.90
16392;DHT22;8305;-33.882;151.134;2023-11-21T12:32:41;20.30;99.90
16392;DHT22;8305;-33.882;151.134;2023-11-21T12:35:15;20.30;99.90
16392;DHT22;8305;-33.882;151.134;2023-11-21T12:37:47;20.30;99.90
16392;DHT22;8305;-33.882;151.134;2023-11-21T12:40:18;20.30;99.90
16392;DHT22;8305;-33.882;151.134;2023-11-21T12:42:52;20.40;99.90
16392;DHT22;8305;-33.882;151.134;2023-11-21T12:45:24;20.40;99.90
16392;DHT22;8305;-33.882;151.134;2023-11-21T12:47:56;20.40;99.90
16392;DHT22;8305;-33.882;151.134;2023-11-21T12:50:30;20.30;99.90
16392;DHT22;8305;-33.882;151.134;2023-11-21T12:53:02;20.30;99.90
16392;DHT22;8305;-33.882;151.134;2023-11-21T12:55:33;20.30;99.90
16392;DHT22;8305;-33.882;151.134;2023-11-21T12:58:06;20.30;99.90
16392;DHT22;8305;-33.882;151.134;2023-11-21T13:00:39;20.30;99.90
16392;DHT22;8305;-33.882;151.134;2023-11-21T13:03:11;20.20;99.90
16392;DHT22;8305;-33.882;151.134;2023-11-21T13:05:48;20.20;99.90
16392;DHT22;8305;-33.882;151.134;2023-11-21T13:08:22;20.20;99.90
16392;DHT22;8305;-33.882;151.134;2023-11-21T13:10:53;20.20;99.90
16392;DHT22;8305;-33.882;151.134;2023-11-21T13:13:25;20.20;99.90
16392;DHT22;8305;-33.882;151.134;2023-11-21T13:15:57;20.20;99.90
16392;DHT22;8305;-33.882;151.134;2023-11-21T13:18:30;20.20;99.90
16392;DHT22;8305;-33.882;151.134;2023-11-21T13:21:04;20.30;99.90
16392;DHT22;8305;-33.882;151.134;2023-11-21T13:23:42;20.30;99.90
16392;DHT22;8305;-33.882;151.134;2023-11-21T13:26:13;20.30;99.90
16392;DHT22;8305;-33.882;151.134;2023-11-21T13:28:44;20.30;99.90
16392;DHT22;8305;-33.882;151.134;2023-11-21T13:31:18;20.30;99.90
16392;DHT22;8305;-33.882;151.134;2023-11-21T13:33:54;20.30;99.90
16392;DHT22;8305;-33.882;151.134;2023-11-21T13:36:34;20.30;99.90
16392;DHT22;8305;-33.882;151.134;2023-11-21T13:39:05;20.30;99.90
16392;DHT22;8305;-33.882;151.134;2023-11-21T13:41:43;20.40;99.90
16392;DHT22;8305;-33.882;151.134;2023-11-21T13:44:15;20.40;99.90
16392;DHT22;8305;-33.882;151.134;2023-11-21T13:46:54;20.40;99.90
16392;DHT22;8305;-33.882;151.134;2023-11-21T13:49:26;20.40;99.90
16392;DHT22;8305;-33.882;151.134;2023-11-21T13:52:01;20.40;99.90
16392;DHT22;8305;-33.882;151.134;2023-11-21T13:54:34;20.40;99.90
16392;DHT22;8305;-33.882;151.134;2023-11-21T13:57:06;20.40;99.90
16392;DHT22;8305;-33.882;151.134;2023-11-21T13:59:37;20.40;99.90
16392;DHT22;8305;-33.882;151.134;2023-11-21T14:02:08;20.40;99.90
16392;DHT22;8305;-33.882;151.134;2023-11-21T14:04:45;20.40;99.90
16392;DHT22;8305;-33.882;151.134;2023-11-21T14:07:25;20.40;99.90
16392;DHT22;8305;-33.882;151.134;2023-11-21T14:10:00;20.40;99.90
16392;DHT22;8305;-33.882;151.134;2023-11-21T14:12:31;20.40;99.90
16392;DHT22;8305;-33.882;151.134;2023-11-21T14:15:04;20.40;99.90
16392;DHT22;8305;-33.882;151.134;2023-11-21T14:17:37;20.40;99.90
16392;DHT22;8305;-33.882;151.134;2023-11-21T14:20:09;20.40;99.90
16392;DHT22;8305;-33.882;151.134;2023-11-21T14:22:45;20.40;99.90
16392;DHT22;8305;-33.882;151.134;2023-11-21T14:25:17;20.40;99.90
16392;DHT22;8305;-33.882;151.134;2023-11-21T14:27:47;20.40;99.90
16392;DHT22;8305;-33.882;151.134;2023-11-21T14:30:18;20.40;99.90
16392;DHT22;8305;-33.882;151.134;2023-11-21T14:32:50;20.40;99.90
16392;DHT22;8305;-33.882;151.134;2023-11-21T14:35:21;20.40;99.90
16392;DHT22;8305;-33.882;151.134;2023-11-21T14:37:54;20.40;99.90
16392;DHT22;8305;-33.882;151.134;2023-11-21T14:40:26;20.40;99.90
16392;DHT22;8305;-33.882;151.134;2023-11-21T14:43:04;20.40;99.90
16392;DHT22;8305;-33.882;151.134;2023-11-21T14:45:35;20.40;99.90
16392;DHT22;8305;-33.882;151.134;2023-11-21T14:48:07;20.30;99.90
16392;DHT22;8305;-33.882;151.134;2023-11-21T14:50:43;20.30;99.90
16392;DHT22;8305;-33.882;151.134;2023-11-21T14:53:47;20.30;99.90
16392;DHT22;8305;-33.882;151.134;2023-11-21T14:56:21;20.30;99.90
16392;DHT22;8305;-33.882;151.134;2023-11-21T14:58:58;20.30;99.90
16392;DHT22;8305;-33.882;151.134;2023-11-21T15:01:33;20.20;99.90
16392;DHT22;8305;-33.882;151.134;2023-11-21T15:04:12;20.20;99.90
16392;DHT22;8305;-33.882;151.134;2023-11-21T15:06:51;20.20;99.90
16392;DHT22;8305;-33.882;151.134;2023-11-21T15:09:27;20.10;99.90
16392;DHT22;8305;-33.882;151.134;2023-11-21T15:12:09;20.10;99.90
16392;DHT22;8305;-33.882;151.134;2023-11-21T15:14:45;20.10;99.90
16392;DHT22;8305;-33.882;151.134;2023-11-21T15:17:17;20.10;99.90
16392;DHT22;8305;-33.882;151.134;2023-11-21T15:19:53;20.10;99.90
16392;DHT22;8305;-33.882;151.134;2023-11-21T15:22:24;20.10;99.90
16392;DHT22;8305;-33.882;151.134;2023-11-21T15:24:58;20.10;99.90
16392;DHT22;8305;-33.882;151.134;2023-11-21T15:27:35;20.10;99.90
16392;DHT22;8305;-33.882;151.134;2023-11-21T15:30:07;20.00;99.90
16392;DHT22;8305;-33.882;151.134;2023-11-21T15:32:38;20.10;99.90
16392;DHT22;8305;-33.882;151.134;2023-11-21T15:35:09;20.00;99.90